Terminal Aerodrome Forecast
Issued by NWS

Home | Current Version | Previous Version | Text Only | Print | Product List | Glossary Off
Versions: 1 2 3 4 5 6 7 8 9 10 11 12 13 14 15 16 17 18 19 20 21 22 23

000
FTUS43 KABR 032233 AAB
TAFMBG
TAF AMD
KMBG 032233Z 0323/0418 15014KT P6SM SKC
     FM040200 12009KT P6SM OVC150
     FM041500 14006KT P6SM VCTS OVC015CB=

USA.gov is the U.S. government's official web portal to all federal, state and local government web resources and services.